createdAt,value
2023-03-31T00:01:54.677Z,51.56
2023-03-31T00:04:24.517Z,51.64
2023-03-31T00:06:54.634Z,51.21
2023-03-31T00:09:22.645Z,51.65
2023-03-31T00:11:52.356Z,51.49
2023-03-31T00:14:21.406Z,51.79
2023-03-31T00:16:49.674Z,51.66
2023-03-31T00:19:21.662Z,51.84
2023-03-31T00:21:49.437Z,52.00
2023-03-31T00:24:17.747Z,52.15
2023-03-31T00:26:45.823Z,52.44
2023-03-31T00:29:14.348Z,52.15
2023-03-31T00:31:42.202Z,52.53
2023-03-31T00:34:10.050Z,52.60
2023-03-31T00:36:47.811Z,52.75
2023-03-31T00:39:19.268Z,52.57
2023-03-31T00:41:48.359Z,52.53
2023-03-31T00:44:24.998Z,52.79
2023-03-31T00:47:02.527Z,52.69
2023-03-31T00:49:49.352Z,52.94
2023-03-31T00:52:22.194Z,52.99
2023-03-31T00:54:55.891Z,52.78
2023-03-31T00:57:26.287Z,52.73
2023-03-31T01:00:02.082Z,52.66
2023-03-31T01:02:30.180Z,53.21
2023-03-31T01:05:02.407Z,53.20
2023-03-31T01:07:42.873Z,53.17
2023-03-31T01:10:12.288Z,53.03
2023-03-31T01:12:46.132Z,53.10
2023-03-31T01:15:14.633Z,52.80
2023-03-31T01:17:47.524Z,53.14
2023-03-31T01:20:26.625Z,53.33
2023-03-31T01:23:19.465Z,53.48
2023-03-31T01:26:21.284Z,53.60
2023-03-31T01:29:12.396Z,53.47
2023-03-31T01:32:05.641Z,53.54
2023-03-31T01:35:13.931Z,53.33
2023-03-31T01:38:01.310Z,53.30
2023-03-31T01:40:44.303Z,53.37
2023-03-31T01:43:44.916Z,53.52
2023-03-31T01:46:15.866Z,53.27
2023-03-31T01:49:01.837Z,53.45
2023-03-31T01:51:41.233Z,53.31
2023-03-31T01:54:28.985Z,53.30
2023-03-31T01:57:01.998Z,53.39
2023-03-31T01:59:41.857Z,53.16
2023-03-31T02:02:27.992Z,53.32
2023-03-31T02:05:01.710Z,53.71
2023-03-31T02:07:36.198Z,53.27
2023-03-31T02:10:08.711Z,53.53
2023-03-31T02:12:41.259Z,53.23
2023-03-31T02:15:14.808Z,53.17
2023-03-31T02:17:46.194Z,53.55
2023-03-31T02:20:18.447Z,53.60
2023-03-31T02:22:50.784Z,53.25
2023-03-31T02:25:23.210Z,52.97
2023-03-31T02:27:58.775Z,53.17
2023-03-31T02:31:16.546Z,53.02
2023-03-31T02:33:44.509Z,53.13
2023-03-31T02:36:12.404Z,53.27
2023-03-31T02:38:46.184Z,52.89
2023-03-31T02:41:14.374Z,53.09
2023-03-31T02:43:42.785Z,52.80
2023-03-31T02:46:10.841Z,52.92
2023-03-31T02:48:43.482Z,52.74
2023-03-31T02:51:14.294Z,52.88
2023-03-31T02:53:43.271Z,53.04
2023-03-31T02:56:24.628Z,52.91
2023-03-31T02:59:14.047Z,52.66
2023-03-31T03:02:05.555Z,52.64
2023-03-31T03:05:06.286Z,52.73
2023-03-31T03:11:12.236Z,52.72
2023-03-31T03:14:25.052Z,52.88
2023-03-31T03:17:06.229Z,52.83
2023-03-31T03:19:34.050Z,52.63
2023-03-31T03:22:01.912Z,52.90
2023-03-31T03:24:30.024Z,52.71
2023-03-31T03:26:57.987Z,52.58
2023-03-31T03:29:27.360Z,52.71
2023-03-31T03:31:55.269Z,52.93
2023-03-31T03:34:23.039Z,52.66
2023-03-31T03:36:51.096Z,52.93
2023-03-31T03:39:19.133Z,52.73
2023-03-31T03:44:51.324Z,52.99
2023-03-31T03:47:19.257Z,52.78
2023-03-31T03:49:49.339Z,52.73
2023-03-31T03:52:17.163Z,52.97
2023-03-31T03:54:45.004Z,53.35
2023-03-31T03:57:13.705Z,53.44
2023-03-31T03:59:41.571Z,53.07
2023-03-31T04:02:09.485Z,52.96
2023-03-31T04:04:37.313Z,52.74
2023-03-31T04:07:05.650Z,53.01
2023-03-31T04:09:33.363Z,52.72
2023-03-31T04:12:01.538Z,52.69
2023-03-31T04:14:29.732Z,52.82
2023-03-31T04:16:58.780Z,53.01
2023-03-31T04:19:27.833Z,53.05
2023-03-31T04:22:03.236Z,52.79
2023-03-31T04:24:33.130Z,52.85
2023-03-31T04:27:03.774Z,53.04
2023-03-31T04:29:34.048Z,52.65
2023-03-31T04:32:02.125Z,52.62
2023-03-31T04:34:37.496Z,52.66
2023-03-31T04:37:05.260Z,52.79
2023-03-31T04:39:32.952Z,52.64
2023-03-31T04:42:01.634Z,52.74
2023-03-31T04:44:29.656Z,52.47
2023-03-31T04:46:59.033Z,52.30
2023-03-31T04:49:26.786Z,52.27
2023-03-31T04:51:54.621Z,52.35
2023-03-31T04:54:22.477Z,51.73
2023-03-31T04:56:50.412Z,52.40
2023-03-31T04:59:18.362Z,51.82
2023-03-31T05:01:46.375Z,51.98
2023-03-31T05:04:14.390Z,51.98
2023-03-31T05:06:42.165Z,51.97
2023-03-31T05:09:10.377Z,51.79
2023-03-31T05:11:38.594Z,51.78
2023-03-31T05:14:06.421Z,53.13
2023-03-31T05:16:34.810Z,52.32
2023-03-31T05:19:03.448Z,52.28
2023-03-31T05:21:31.877Z,52.34
2023-03-31T05:24:00.020Z,50.22
2023-03-31T05:26:28.354Z,50.08
2023-03-31T05:28:56.163Z,49.74
2023-03-31T05:31:23.997Z,49.52
2023-03-31T05:33:51.984Z,49.47
2023-03-31T05:36:19.901Z,49.39
2023-03-31T05:38:48.448Z,49.80
2023-03-31T05:41:17.191Z,49.90
2023-03-31T05:43:45.346Z,50.27
2023-03-31T05:46:13.445Z,49.47
2023-03-31T05:48:41.813Z,49.56
2023-03-31T05:51:12.133Z,49.57
2023-03-31T05:53:40.066Z,48.63
2023-03-31T05:56:09.610Z,48.39
2023-03-31T05:58:38.757Z,48.86
2023-03-31T06:01:10.821Z,48.52
2023-03-31T06:03:42.062Z,48.61
2023-03-31T06:06:15.071Z,48.39
2023-03-31T06:08:45.948Z,48.38
2023-03-31T06:11:19.866Z,48.63
2023-03-31T06:13:48.644Z,47.54
2023-03-31T06:16:17.757Z,46.31
2023-03-31T06:18:46.266Z,46.81
2023-03-31T06:21:19.466Z,47.06
2023-03-31T06:23:47.355Z,46.96
2023-03-31T06:26:18.000Z,47.28
2023-03-31T06:28:47.154Z,47.27
2023-03-31T06:31:18.373Z,47.51
2023-03-31T06:33:47.129Z,47.97
2023-03-31T06:36:17.760Z,48.32
2023-03-31T06:38:46.298Z,48.35
2023-03-31T06:41:16.145Z,48.73
2023-03-31T06:43:44.261Z,48.74
2023-03-31T06:46:14.567Z,48.71
2023-03-31T06:48:42.808Z,48.95
2023-03-31T06:51:12.118Z,49.05
2023-03-31T06:53:40.954Z,49.26
2023-03-31T06:56:11.277Z,49.62
2023-03-31T06:58:39.349Z,49.63
2023-03-31T07:01:09.276Z,50.16
2023-03-31T07:03:37.541Z,49.03
2023-03-31T07:06:05.759Z,48.27
2023-03-31T07:08:33.799Z,47.97
2023-03-31T07:11:02.358Z,47.74
2023-03-31T07:13:30.458Z,48.12
2023-03-31T07:15:59.437Z,48.15
2023-03-31T07:18:34.849Z,45.56
2023-03-31T07:21:05.687Z,46.25
2023-03-31T07:23:36.054Z,46.47
2023-03-31T07:26:04.362Z,46.45
2023-03-31T07:28:32.864Z,45.24
2023-03-31T07:31:00.897Z,45.13
2023-03-31T07:33:28.760Z,44.20
2023-03-31T07:36:10.204Z,44.07
2023-03-31T07:38:47.913Z,43.39
2023-03-31T07:41:18.736Z,43.12
2023-03-31T07:43:51.045Z,42.49
2023-03-31T07:46:22.080Z,41.61
2023-03-31T07:48:50.746Z,42.41
2023-03-31T07:51:21.911Z,42.14
2023-03-31T07:53:52.769Z,42.28
2023-03-31T07:56:23.200Z,41.67
2023-03-31T07:58:57.558Z,41.19
2023-03-31T08:01:26.562Z,41.46
2023-03-31T08:03:55.836Z,41.80
2023-03-31T08:06:26.216Z,41.87
2023-03-31T08:08:54.095Z,41.82
2023-03-31T08:11:22.138Z,41.63
2023-03-31T08:13:50.395Z,41.50
2023-03-31T08:16:18.870Z,41.11
2023-03-31T08:18:46.752Z,43.14
2023-03-31T08:21:14.809Z,42.68
2023-03-31T08:23:45.889Z,41.89
2023-03-31T08:26:18.341Z,41.07
2023-03-31T08:28:49.337Z,41.36
2023-03-31T08:31:19.457Z,41.33
2023-03-31T08:33:47.546Z,41.45
2023-03-31T08:36:15.654Z,42.08
2023-03-31T08:38:47.500Z,41.83
2023-03-31T08:41:27.290Z,39.95
2023-03-31T08:43:57.849Z,39.75
2023-03-31T08:46:28.844Z,39.69
2023-03-31T08:48:59.040Z,39.47
2023-03-31T08:51:41.485Z,38.61
2023-03-31T08:54:15.809Z,40.37
2023-03-31T08:56:48.278Z,40.33
2023-03-31T08:59:37.984Z,40.74
2023-03-31T09:02:29.587Z,46.92
2023-03-31T09:05:22.841Z,43.37
2023-03-31T09:08:02.997Z,43.34
2023-03-31T09:10:58.627Z,43.52
2023-03-31T09:13:53.953Z,42.76
2023-03-31T09:16:32.596Z,43.27
2023-03-31T09:19:02.587Z,43.96
2023-03-31T09:21:46.437Z,43.95
2023-03-31T09:24:32.741Z,41.80
2023-03-31T09:27:03.175Z,39.83
2023-03-31T09:29:41.523Z,41.06
2023-03-31T09:32:31.518Z,42.63
2023-03-31T09:35:03.339Z,41.72
2023-03-31T09:37:33.476Z,40.51
2023-03-31T09:40:07.990Z,41.32
2023-03-31T09:42:37.154Z,42.09
2023-03-31T09:45:06.239Z,41.46
2023-03-31T09:47:40.568Z,40.75
2023-03-31T09:50:10.767Z,37.92
2023-03-31T09:52:43.010Z,35.65
2023-03-31T09:55:28.437Z,38.24
2023-03-31T09:58:07.603Z,38.52
2023-03-31T10:00:36.762Z,38.11
2023-03-31T10:03:09.005Z,37.02
2023-03-31T10:05:41.517Z,39.52
2023-03-31T10:08:47.981Z,39.66
2023-03-31T10:11:16.170Z,39.79
2023-03-31T10:13:48.718Z,37.14
2023-03-31T10:16:34.620Z,34.71
2023-03-31T10:19:23.366Z,35.37
2023-03-31T10:22:03.493Z,39.75
2023-03-31T10:24:43.008Z,40.37
2023-03-31T10:27:20.041Z,40.68
2023-03-31T10:29:49.589Z,40.24
2023-03-31T10:32:24.827Z,40.09
2023-03-31T10:34:52.903Z,40.54
2023-03-31T10:37:25.221Z,40.35
2023-03-31T10:40:13.126Z,40.38
2023-03-31T10:42:41.949Z,40.79
2023-03-31T10:45:37.197Z,40.07
2023-03-31T10:48:17.733Z,38.22
2023-03-31T10:50:45.625Z,37.93
2023-03-31T10:53:15.499Z,36.12
2023-03-31T10:56:22.737Z,35.34
2023-03-31T10:59:10.664Z,36.85
2023-03-31T11:02:01.982Z,38.03
2023-03-31T11:04:49.454Z,38.67
2023-03-31T11:07:37.464Z,39.35
2023-03-31T11:10:25.880Z,35.60
2023-03-31T11:13:15.524Z,36.65
2023-03-31T11:16:09.379Z,38.97
2023-03-31T11:19:12.172Z,40.73
2023-03-31T11:22:01.099Z,41.29
2023-03-31T11:24:41.159Z,42.27
2023-03-31T11:27:36.546Z,43.46
2023-03-31T11:30:48.137Z,43.23
2023-03-31T11:33:36.798Z,44.63
2023-03-31T11:36:14.594Z,45.33
2023-03-31T11:39:07.203Z,45.93
2023-03-31T11:41:51.826Z,46.02
2023-03-31T11:44:22.109Z,46.07
2023-03-31T11:47:06.678Z,46.36
2023-03-31T11:49:45.431Z,46.64
2023-03-31T11:52:18.081Z,46.56
2023-03-31T11:55:18.203Z,46.94
2023-03-31T11:57:54.272Z,46.79
2023-03-31T12:00:28.415Z,46.92
2023-03-31T12:03:08.164Z,47.29
2023-03-31T12:05:50.570Z,47.07
2023-03-31T12:08:35.756Z,48.67
2023-03-31T12:11:12.294Z,48.98
2023-03-31T12:13:45.424Z,48.43
2023-03-31T12:16:34.823Z,54.29
2023-03-31T12:19:15.738Z,49.18
2023-03-31T12:21:50.969Z,48.83
2023-03-31T12:24:19.274Z,48.49
2023-03-31T12:26:52.987Z,48.85
2023-03-31T12:29:33.668Z,48.27
2023-03-31T12:34:14.993Z,48.72
2023-03-31T12:37:10.843Z,48.96
2023-03-31T12:39:49.874Z,48.58
2023-03-31T12:42:44.776Z,49.23
2023-03-31T12:45:19.630Z,49.08
2023-03-31T12:48:18.645Z,49.09
2023-03-31T12:50:52.677Z,48.68
2023-03-31T12:53:44.751Z,48.85
2023-03-31T12:56:12.684Z,48.51
2023-03-31T12:58:45.558Z,48.73
2023-03-31T13:01:19.383Z,48.84
2023-03-31T13:03:53.210Z,48.66
2023-03-31T13:06:30.723Z,48.76
2023-03-31T13:09:29.803Z,48.31
2023-03-31T13:11:58.061Z,48.96
2023-03-31T13:14:47.566Z,49.33
2023-03-31T13:17:31.600Z,49.14
2023-03-31T13:20:41.135Z,49.23
2023-03-31T13:23:11.826Z,48.88
2023-03-31T13:25:54.863Z,49.16
2023-03-31T13:28:27.435Z,49.28
2023-03-31T13:31:03.191Z,49.35
2023-03-31T13:33:57.732Z,49.13
2023-03-31T13:36:34.870Z,49.32
2023-03-31T13:39:05.816Z,49.03
2023-03-31T13:42:08.038Z,48.90
2023-03-31T13:44:58.066Z,48.91
2023-03-31T13:47:58.275Z,48.87
2023-03-31T13:50:38.593Z,50.72
2023-03-31T13:53:15.976Z,50.55
2023-03-31T13:55:56.624Z,50.91
2023-03-31T13:58:34.955Z,50.45
2023-03-31T14:01:06.246Z,50.75
2023-03-31T14:04:11.854Z,51.92
2023-03-31T14:06:48.119Z,50.04
2023-03-31T14:09:52.693Z,50.36
2023-03-31T14:12:33.788Z,50.50
2023-03-31T14:15:02.589Z,51.61
2023-03-31T14:17:34.212Z,51.05
2023-03-31T14:20:28.002Z,50.84
2023-03-31T14:23:10.883Z,51.29
2023-03-31T14:25:44.724Z,50.94
2023-03-31T14:28:37.587Z,50.78
2023-03-31T14:31:35.711Z,51.25
2023-03-31T14:34:25.040Z,50.25
2023-03-31T14:36:59.383Z,50.87
2023-03-31T14:40:03.663Z,50.43
2023-03-31T14:42:43.438Z,50.55
2023-03-31T14:45:25.513Z,51.01
2023-03-31T14:47:59.011Z,51.52
2023-03-31T14:50:35.281Z,50.98
2023-03-31T14:53:04.897Z,50.51
2023-03-31T14:55:54.288Z,50.48
2023-03-31T14:58:35.291Z,51.13
2023-03-31T15:01:07.121Z,50.69
2023-03-31T15:03:41.754Z,50.32
2023-03-31T15:06:11.242Z,50.66
2023-03-31T15:08:39.639Z,50.06
2023-03-31T15:11:17.832Z,50.11
2023-03-31T15:14:04.562Z,50.08
2023-03-31T15:16:42.765Z,49.81
2023-03-31T15:19:26.447Z,50.35
2023-03-31T15:21:56.710Z,49.90
2023-03-31T15:24:25.706Z,50.35
2023-03-31T15:27:02.819Z,49.66
2023-03-31T15:29:38.311Z,50.19
2023-03-31T15:32:14.120Z,50.27
2023-03-31T15:34:43.547Z,50.27
2023-03-31T15:37:11.248Z,50.23
2023-03-31T15:39:39.995Z,49.70
2023-03-31T15:42:11.197Z,50.53
2023-03-31T15:44:46.587Z,50.27
2023-03-31T15:47:25.566Z,51.26
2023-03-31T15:50:13.320Z,50.34
2023-03-31T15:52:49.556Z,50.69
2023-03-31T15:55:23.653Z,50.59
2023-03-31T15:57:53.786Z,50.66
2023-03-31T16:00:34.070Z,50.37
2023-03-31T16:03:04.533Z,50.90
2023-03-31T16:05:53.688Z,50.68
2023-03-31T16:08:25.148Z,51.07
2023-03-31T16:11:04.303Z,50.87
2023-03-31T16:13:32.911Z,50.53
2023-03-31T16:16:01.412Z,50.51
2023-03-31T16:18:43.412Z,50.09
2023-03-31T16:21:13.061Z,49.99
2023-03-31T16:23:41.714Z,50.12
2023-03-31T16:26:09.639Z,50.06
2023-03-31T16:28:39.100Z,49.50
2023-03-31T16:31:29.973Z,49.60
2023-03-31T16:34:00.025Z,49.94
2023-03-31T16:36:28.356Z,49.66
2023-03-31T16:39:21.421Z,50.10
2023-03-31T16:41:51.143Z,50.70
2023-03-31T16:44:19.121Z,50.05
2023-03-31T16:46:47.661Z,50.35
2023-03-31T16:49:15.605Z,50.41
2023-03-31T16:51:43.530Z,50.64
2023-03-31T16:54:11.798Z,50.84
2023-03-31T16:56:39.706Z,50.86
2023-03-31T16:59:09.261Z,50.68
2023-03-31T17:01:37.188Z,50.46
2023-03-31T17:04:05.125Z,50.41
2023-03-31T17:06:33.238Z,50.29
2023-03-31T17:09:01.898Z,50.39
2023-03-31T17:11:32.428Z,50.24
2023-03-31T17:14:02.499Z,50.25
2023-03-31T17:16:40.596Z,49.48
2023-03-31T17:19:15.940Z,49.57
2023-03-31T17:21:45.324Z,49.25
2023-03-31T17:24:13.130Z,49.42
2023-03-31T17:26:41.764Z,49.42
2023-03-31T17:29:09.764Z,49.52
2023-03-31T17:31:37.566Z,49.68
2023-03-31T17:34:05.729Z,49.67
2023-03-31T17:36:33.668Z,49.25
2023-03-31T17:39:02.738Z,49.72
2023-03-31T17:41:31.330Z,49.81
2023-03-31T17:43:59.109Z,50.04
2023-03-31T17:46:29.818Z,49.88
2023-03-31T17:48:59.557Z,49.82
2023-03-31T17:51:27.997Z,49.41
2023-03-31T17:53:56.478Z,49.53
2023-03-31T17:56:24.545Z,49.38
2023-03-31T17:58:53.646Z,49.34
2023-03-31T18:01:21.979Z,49.82
2023-03-31T18:03:49.909Z,49.56
2023-03-31T18:06:17.991Z,49.57
2023-03-31T18:08:47.562Z,49.75
2023-03-31T18:11:15.783Z,49.86
2023-03-31T18:13:45.215Z,49.41
2023-03-31T18:16:13.978Z,49.45
2023-03-31T18:18:42.628Z,49.43
2023-03-31T18:21:13.520Z,49.30
2023-03-31T18:23:41.846Z,49.40
2023-03-31T18:26:11.572Z,49.04
2023-03-31T18:28:43.283Z,48.90
2023-03-31T18:31:12.667Z,49.10
2023-03-31T18:33:41.782Z,48.93
2023-03-31T18:36:17.047Z,49.00
2023-03-31T18:38:46.620Z,48.88
2023-03-31T18:41:15.556Z,49.08
2023-03-31T18:43:44.733Z,48.64
2023-03-31T18:46:13.149Z,48.81
2023-03-31T18:48:42.055Z,49.11
2023-03-31T18:51:10.004Z,49.46
2023-03-31T18:53:37.699Z,49.27
2023-03-31T18:56:05.828Z,49.35
2023-03-31T18:58:34.534Z,49.83
2023-03-31T19:01:02.772Z,49.78
2023-03-31T19:03:32.579Z,49.52
2023-03-31T19:06:03.391Z,49.06
2023-03-31T19:08:33.006Z,49.36
2023-03-31T19:11:13.253Z,49.42
2023-03-31T19:13:43.778Z,48.96
2023-03-31T19:16:13.124Z,48.97
2023-03-31T19:18:42.331Z,49.52
2023-03-31T19:21:11.386Z,49.25
2023-03-31T19:23:39.702Z,49.17
2023-03-31T19:26:08.254Z,49.29
2023-03-31T19:28:36.063Z,48.58
2023-03-31T19:31:04.856Z,48.63
2023-03-31T19:33:33.211Z,48.55
2023-03-31T19:36:01.186Z,48.15
2023-03-31T19:38:32.067Z,48.26
2023-03-31T19:41:00.387Z,48.25
2023-03-31T19:43:29.561Z,48.00
2023-03-31T19:45:59.953Z,48.12
2023-03-31T19:48:31.426Z,47.96
2023-03-31T19:51:01.340Z,47.89
2023-03-31T19:53:39.087Z,47.88
2023-03-31T19:56:13.666Z,47.93
2023-03-31T19:58:42.257Z,47.58
2023-03-31T20:01:17.919Z,48.08
2023-03-31T20:03:46.499Z,47.89
2023-03-31T20:06:15.333Z,48.14
2023-03-31T20:08:43.945Z,48.08
2023-03-31T20:11:15.027Z,47.51
2023-03-31T20:13:43.608Z,47.48
2023-03-31T20:16:16.966Z,47.37
2023-03-31T20:18:56.046Z,47.81
2023-03-31T20:21:27.368Z,47.67
2023-03-31T20:23:57.405Z,47.87
2023-03-31T20:26:37.550Z,47.54
2023-03-31T20:29:06.855Z,47.71
2023-03-31T20:31:37.882Z,48.19
2023-03-31T20:34:16.294Z,48.30
2023-03-31T20:36:46.522Z,48.68
2023-03-31T20:39:16.183Z,47.77
2023-03-31T20:41:45.122Z,47.50
2023-03-31T20:44:15.799Z,47.78
2023-03-31T20:46:44.713Z,47.76
2023-03-31T20:49:13.113Z,47.89
2023-03-31T20:51:41.986Z,47.69
2023-03-31T20:54:11.198Z,47.70
2023-03-31T20:56:42.116Z,48.16
2023-03-31T20:59:15.384Z,48.12
2023-03-31T21:01:45.485Z,47.80
2023-03-31T21:04:14.263Z,48.50
2023-03-31T21:06:47.162Z,48.92
2023-03-31T21:09:19.161Z,49.16
2023-03-31T21:11:48.354Z,48.67
2023-03-31T21:14:17.392Z,48.79
2023-03-31T21:16:45.806Z,48.54
2023-03-31T21:19:13.784Z,48.30
2023-03-31T21:21:43.304Z,47.90
2023-03-31T21:24:13.034Z,48.40
2023-03-31T21:26:41.370Z,48.21
2023-03-31T21:29:09.351Z,47.68
2023-03-31T21:31:37.403Z,47.92
2023-03-31T21:34:05.603Z,48.57
2023-03-31T21:36:33.459Z,48.20
2023-03-31T21:39:01.370Z,48.56
2023-03-31T21:41:32.686Z,48.17
2023-03-31T21:44:02.717Z,48.16
2023-03-31T21:46:33.200Z,48.16
2023-03-31T21:49:03.078Z,48.23
2023-03-31T21:51:31.430Z,47.98
2023-03-31T21:53:59.323Z,48.11
2023-03-31T21:56:28.527Z,47.82
2023-03-31T21:59:02.528Z,48.14
2023-03-31T22:01:31.694Z,48.25
2023-03-31T22:04:00.573Z,47.84
2023-03-31T22:06:29.986Z,47.98
2023-03-31T22:09:07.452Z,47.70
2023-03-31T22:11:36.240Z,47.77
2023-03-31T22:14:04.432Z,47.96
2023-03-31T22:16:32.384Z,48.07
2023-03-31T22:19:03.132Z,47.94
2023-03-31T22:21:41.964Z,47.92
2023-03-31T22:24:13.380Z,48.30
2023-03-31T22:26:41.470Z,47.98
2023-03-31T22:29:14.518Z,48.07
2023-03-31T22:31:42.382Z,48.21
2023-03-31T22:34:10.116Z,47.99
2023-03-31T22:36:38.044Z,48.20
2023-03-31T22:39:05.868Z,47.91
2023-03-31T22:41:33.647Z,47.96
2023-03-31T22:44:01.412Z,47.95
2023-03-31T22:46:29.336Z,48.19
2023-03-31T22:48:58.081Z,48.10
2023-03-31T22:51:25.906Z,48.15
2023-03-31T22:53:54.920Z,48.11
2023-03-31T22:56:24.300Z,48.07
2023-03-31T22:58:52.545Z,48.29
2023-03-31T23:01:21.833Z,47.85
2023-03-31T23:03:50.324Z,47.86
2023-03-31T23:06:18.724Z,47.97
2023-03-31T23:08:49.495Z,47.88
2023-03-31T23:11:19.015Z,48.02
2023-03-31T23:13:48.107Z,47.81
2023-03-31T23:16:22.646Z,47.88
2023-03-31T23:18:52.982Z,48.17
2023-03-31T23:21:23.780Z,48.19
2023-03-31T23:23:54.249Z,48.24
2023-03-31T23:26:24.418Z,48.49
2023-03-31T23:28:55.710Z,48.40
2023-03-31T23:31:26.995Z,48.10
2023-03-31T23:33:55.300Z,47.93
2023-03-31T23:36:24.225Z,48.33
2023-03-31T23:38:55.014Z,48.15
2023-03-31T23:41:24.223Z,48.43
2023-03-31T23:43:53.807Z,48.40
2023-03-31T23:46:21.971Z,48.53
2023-03-31T23:48:50.112Z,48.16
2023-03-31T23:51:18.979Z,48.73
2023-03-31T23:53:46.860Z,48.31
2023-03-31T23:56:14.972Z,48.46
2023-03-31T23:58:45.097Z,48.34
